עמוד ראשי
METAR-TAF:

METAR-TAF

שדות תעופה :

Brevig Mission, אלסקה, ארצות הברית

קו רוחב: 65-19-53N, קו אורך: 166-27-57W, גובה: 11מטר

תצפית מזג אוויר נוכחית

הדו"ח נערך לפני 39דקות, בשעה 19:22 UTC
רוח 5קשר מכיוון מזרח/דרום-מזרח
טמפרטורת 6 צלסיוס
לחות 75%
לחץ 1015 hPa
ראות: 16.1קילומטר
מעונן בגובה 2900רגל

METAR: PFKT 191922Z AUTO 12005KT 10SM OVC029 06/02 A2996 RMK AO2

זמן: 12:01 (20:01 UTC)


TAF: חסר

תצפיות ותחזיות מזג אוויר לגבי יותר מ- 4,000 שדות תעופה ברחבי העולם. דוחות METAR ו- TAF.

התחנות הזמינות מסומנות בנקודות צהובות ואדומות על גבי המפה.

העבר את העכבר לנקודה הצבעונית על מנת לראות את שם התחנה.

לאחר מכן, לחץ כדי לראות את תוכן ואת תחזיות מזג האוויר.

כדי לשנות את המפה: לחץ על הכפתורים הירוקים עם הפלוס השחור כדי להתקרב; על הכפתור הירוק עם המקף כדי להתרחק; או בחיצים הירוקים למפות סמוכות.


METAR-TAF: